Bailey Switch, Kentucky
Current Conditions -  °F | °C
As of 4:53 AM on Saturday 22 Nov 2014 (Local Time) from KLOZ Reporting Station
Few Clouds Few Clouds  
Wind Chill: 29°   Ceiling: Unl
Heat Index: 29°   Visibility: 10mi
Dew Point: 19°   Wind: 0mph
Humidity: 67%   Direction: NA
Pressure: 30.38"   Gusts: NA
Location:  36.865°N, 83.9507°W
Report Text: KLOZ 220953Z AUTO 00000KT 10SM FEW090 M02/M07 A3038 RMK AO2 SLP293 T10171072
Loading
Personal Weather Stations






























Interactive Weather Map New forecast layout! Learn more

10-Day Weather Forecast

Advertisements
Track Severe Weather on mobile